sensor_id;sensor_type;location;lat;lon;timestamp;temperature;humidity
22674;DHT22;11504;43.334;21.918;2022-07-23T00:00:35;25.2;100.0
22674;DHT22;11504;43.334;21.918;2022-07-23T00:05:12;25.2;100.0
22674;DHT22;11504;43.334;21.918;2022-07-23T00:09:49;25.2;100.0
22674;DHT22;11504;43.334;21.918;2022-07-23T00:14:25;25.2;100.0
22674;DHT22;11504;43.334;21.918;2022-07-23T00:19:02;25.0;100.0
22674;DHT22;11504;43.334;21.918;2022-07-23T00:23:38;25.0;100.0
22674;DHT22;11504;43.334;21.918;2022-07-23T00:28:15;24.9;100.0
22674;DHT22;11504;43.334;21.918;2022-07-23T00:32:52;24.9;100.0
22674;DHT22;11504;43.334;21.918;2022-07-23T00:37:36;24.7;100.0
22674;DHT22;11504;43.334;21.918;2022-07-23T00:42:13;24.7;100.0
22674;DHT22;11504;43.334;21.918;2022-07-23T00:46:51;24.5;100.0
22674;DHT22;11504;43.334;21.918;2022-07-23T00:51:33;24.5;100.0
22674;DHT22;11504;43.334;21.918;2022-07-23T00:56:10;24.4;100.0
22674;DHT22;11504;43.334;21.918;2022-07-23T01:00:48;24.4;100.0
22674;DHT22;11504;43.334;21.918;2022-07-23T01:05:25;24.3;100.0
22674;DHT22;11504;43.334;21.918;2022-07-23T01:10:03;24.3;100.0
22674;DHT22;11504;43.334;21.918;2022-07-23T01:14:44;24.2;100.0
22674;DHT22;11504;43.334;21.918;2022-07-23T01:19:30;24.2;100.0
22674;DHT22;11504;43.334;21.918;2022-07-23T01:24:08;24.2;100.0
22674;DHT22;11504;43.334;21.918;2022-07-23T01:28:49;24.1;100.0
22674;DHT22;11504;43.334;21.918;2022-07-23T01:33:26;24.1;100.0
22674;DHT22;11504;43.334;21.918;2022-07-23T01:38:03;24.0;100.0
22674;DHT22;11504;43.334;21.918;2022-07-23T01:42:41;24.0;100.0
22674;DHT22;11504;43.334;21.918;2022-07-23T01:47:18;23.9;100.0
22674;DHT22;11504;43.334;21.918;2022-07-23T01:51:56;23.9;100.0
22674;DHT22;11504;43.334;21.918;2022-07-23T01:56:34;23.7;100.0
22674;DHT22;11504;43.334;21.918;2022-07-23T02:01:11;23.7;100.0
22674;DHT22;11504;43.334;21.918;2022-07-23T02:05:48;23.5;100.0
22674;DHT22;11504;43.334;21.918;2022-07-23T02:10:27;23.5;100.0
22674;DHT22;11504;43.334;21.918;2022-07-23T02:15:06;23.4;100.0
22674;DHT22;11504;43.334;21.918;2022-07-23T02:19:45;23.4;100.0
22674;DHT22;11504;43.334;21.918;2022-07-23T02:24:22;23.4;100.0
22674;DHT22;11504;43.334;21.918;2022-07-23T02:29:00;23.3;100.0
22674;DHT22;11504;43.334;21.918;2022-07-23T02:33:39;23.3;100.0
22674;DHT22;11504;43.334;21.918;2022-07-23T02:38:16;23.1;100.0
22674;DHT22;11504;43.334;21.918;2022-07-23T02:42:53;23.1;100.0
22674;DHT22;11504;43.334;21.918;2022-07-23T02:47:30;22.9;100.0
22674;DHT22;11504;43.334;21.918;2022-07-23T02:52:06;22.9;100.0
22674;DHT22;11504;43.334;21.918;2022-07-23T02:56:43;22.7;100.0
22674;DHT22;11504;43.334;21.918;2022-07-23T03:01:20;22.7;100.0
22674;DHT22;11504;43.334;21.918;2022-07-23T03:05:57;22.5;100.0
22674;DHT22;11504;43.334;21.918;2022-07-23T03:10:33;22.5;100.0
22674;DHT22;11504;43.334;21.918;2022-07-23T03:15:09;22.4;100.0
22674;DHT22;11504;43.334;21.918;2022-07-23T03:19:46;22.4;100.0
22674;DHT22;11504;43.334;21.918;2022-07-23T03:24:22;22.4;100.0
22674;DHT22;11504;43.334;21.918;2022-07-23T03:28:58;22.3;100.0
22674;DHT22;11504;43.334;21.918;2022-07-23T03:33:34;22.3;100.0
22674;DHT22;11504;43.334;21.918;2022-07-23T03:38:11;22.3;100.0
22674;DHT22;11504;43.334;21.918;2022-07-23T03:42:50;22.3;100.0
22674;DHT22;11504;43.334;21.918;2022-07-23T03:47:27;22.3;100.0
22674;DHT22;11504;43.334;21.918;2022-07-23T03:52:04;22.3;100.0
22674;DHT22;11504;43.334;21.918;2022-07-23T03:56:42;22.6;100.0
22674;DHT22;11504;43.334;21.918;2022-07-23T04:01:19;22.6;100.0
22674;DHT22;11504;43.334;21.918;2022-07-23T04:05:56;22.8;100.0
22674;DHT22;11504;43.334;21.918;2022-07-23T04:10:33;22.8;100.0
22674;DHT22;11504;43.334;21.918;2022-07-23T04:15:10;23.1;100.0
22674;DHT22;11504;43.334;21.918;2022-07-23T04:19:47;23.1;100.0
22674;DHT22;11504;43.334;21.918;2022-07-23T04:24:24;23.1;100.0
22674;DHT22;11504;43.334;21.918;2022-07-23T04:29:01;23.4;100.0
22674;DHT22;11504;43.334;21.918;2022-07-23T04:33:38;23.4;100.0
22674;DHT22;11504;43.334;21.918;2022-07-23T04:38:15;26.4;100.0
22674;DHT22;11504;43.334;21.918;2022-07-23T04:42:52;26.4;100.0
22674;DHT22;11504;43.334;21.918;2022-07-23T04:47:31;29.3;100.0
22674;DHT22;11504;43.334;21.918;2022-07-23T04:52:08;29.3;100.0
22674;DHT22;11504;43.334;21.918;2022-07-23T04:56:46;32.5;100.0
22674;DHT22;11504;43.334;21.918;2022-07-23T05:01:23;32.5;100.0
22674;DHT22;11504;43.334;21.918;2022-07-23T05:05:59;35.7;100.0
22674;DHT22;11504;43.334;21.918;2022-07-23T05:10:36;35.7;100.0
22674;DHT22;11504;43.334;21.918;2022-07-23T05:15:14;37.4;100.0
22674;DHT22;11504;43.334;21.918;2022-07-23T05:19:51;37.4;100.0
22674;DHT22;11504;43.334;21.918;2022-07-23T05:24:27;37.4;100.0
22674;DHT22;11504;43.334;21.918;2022-07-23T05:29:04;39.0;100.0
22674;DHT22;11504;43.334;21.918;2022-07-23T05:33:41;39.0;100.0
22674;DHT22;11504;43.334;21.918;2022-07-23T05:38:18;40.0;100.0
22674;DHT22;11504;43.334;21.918;2022-07-23T05:42:54;40.0;100.0
22674;DHT22;11504;43.334;21.918;2022-07-23T05:47:39;41.0;100.0
22674;DHT22;11504;43.334;21.918;2022-07-23T05:52:21;41.0;100.0
22674;DHT22;11504;43.334;21.918;2022-07-23T05:56:57;41.4;100.0
22674;DHT22;11504;43.334;21.918;2022-07-23T06:01:34;41.4;100.0
22674;DHT22;11504;43.334;21.918;2022-07-23T06:06:10;41.9;100.0
22674;DHT22;11504;43.334;21.918;2022-07-23T06:10:46;41.9;100.0
22674;DHT22;11504;43.334;21.918;2022-07-23T06:15:23;41.7;100.0
22674;DHT22;11504;43.334;21.918;2022-07-23T06:20:00;41.7;100.0
22674;DHT22;11504;43.334;21.918;2022-07-23T06:24:37;41.7;100.0
22674;DHT22;11504;43.334;21.918;2022-07-23T06:29:14;41.5;100.0
22674;DHT22;11504;43.334;21.918;2022-07-23T06:33:50;41.5;100.0
22674;DHT22;11504;43.334;21.918;2022-07-23T06:38:28;40.6;100.0
22674;DHT22;11504;43.334;21.918;2022-07-23T06:43:05;40.6;100.0
22674;DHT22;11504;43.334;21.918;2022-07-23T06:47:42;39.6;100.0
22674;DHT22;11504;43.334;21.918;2022-07-23T06:52:19;39.6;100.0
22674;DHT22;11504;43.334;21.918;2022-07-23T06:56:56;38.9;100.0
22674;DHT22;11504;43.334;21.918;2022-07-23T07:01:32;38.9;100.0
22674;DHT22;11504;43.334;21.918;2022-07-23T07:06:09;38.2;100.0
22674;DHT22;11504;43.334;21.918;2022-07-23T07:10:46;38.2;100.0
22674;DHT22;11504;43.334;21.918;2022-07-23T07:15:23;38.0;100.0
22674;DHT22;11504;43.334;21.918;2022-07-23T07:20:00;38.0;100.0
22674;DHT22;11504;43.334;21.918;2022-07-23T07:24:40;38.0;100.0
22674;DHT22;11504;43.334;21.918;2022-07-23T07:29:17;37.7;100.0
22674;DHT22;11504;43.334;21.918;2022-07-23T07:33:54;37.7;100.0
22674;DHT22;11504;43.334;21.918;2022-07-23T07:38:33;37.8;100.0
22674;DHT22;11504;43.334;21.918;2022-07-23T07:43:11;37.8;100.0
22674;DHT22;11504;43.334;21.918;2022-07-23T07:47:48;37.8;100.0
22674;DHT22;11504;43.334;21.918;2022-07-23T07:52:27;37.8;100.0
22674;DHT22;11504;43.334;21.918;2022-07-23T07:57:04;37.8;100.0
22674;DHT22;11504;43.334;21.918;2022-07-23T08:01:42;37.8;100.0
22674;DHT22;11504;43.334;21.918;2022-07-23T08:06:18;37.7;100.0
22674;DHT22;11504;43.334;21.918;2022-07-23T08:10:55;37.7;100.0
22674;DHT22;11504;43.334;21.918;2022-07-23T08:15:31;37.8;100.0
22674;DHT22;11504;43.334;21.918;2022-07-23T08:20:10;37.8;100.0
22674;DHT22;11504;43.334;21.918;2022-07-23T08:24:52;37.8;100.0
22674;DHT22;11504;43.334;21.918;2022-07-23T08:29:28;37.9;100.0
22674;DHT22;11504;43.334;21.918;2022-07-23T08:34:05;37.9;100.0
22674;DHT22;11504;43.334;21.918;2022-07-23T08:38:41;37.8;100.0
22674;DHT22;11504;43.334;21.918;2022-07-23T08:43:21;37.8;100.0
22674;DHT22;11504;43.334;21.918;2022-07-23T08:48:07;37.8;100.0
22674;DHT22;11504;43.334;21.918;2022-07-23T08:52:53;37.8;100.0
22674;DHT22;11504;43.334;21.918;2022-07-23T08:57:31;38.0;100.0
22674;DHT22;11504;43.334;21.918;2022-07-23T09:02:08;38.0;100.0
22674;DHT22;11504;43.334;21.918;2022-07-23T09:06:44;38.2;100.0
22674;DHT22;11504;43.334;21.918;2022-07-23T09:11:22;38.2;100.0
22674;DHT22;11504;43.334;21.918;2022-07-23T09:16:02;38.4;100.0
22674;DHT22;11504;43.334;21.918;2022-07-23T09:21:13;38.4;100.0
22674;DHT22;11504;43.334;21.918;2022-07-23T09:26:19;38.6;100.0
22674;DHT22;11504;43.334;21.918;2022-07-23T09:31:16;38.6;100.0
22674;DHT22;11504;43.334;21.918;2022-07-23T09:35:54;38.6;100.0
22674;DHT22;11504;43.334;21.918;2022-07-23T09:40:32;38.6;100.0
22674;DHT22;11504;43.334;21.918;2022-07-23T09:45:10;38.5;100.0
22674;DHT22;11504;43.334;21.918;2022-07-23T09:49:58;38.5;100.0
22674;DHT22;11504;43.334;21.918;2022-07-23T09:54:45;38.5;100.0
22674;DHT22;11504;43.334;21.918;2022-07-23T09:59:38;38.6;100.0
22674;DHT22;11504;43.334;21.918;2022-07-23T10:04:21;38.6;100.0
22674;DHT22;11504;43.334;21.918;2022-07-23T10:09:08;38.6;100.0
22674;DHT22;11504;43.334;21.918;2022-07-23T10:14:09;38.6;100.0
22674;DHT22;11504;43.334;21.918;2022-07-23T10:18:48;38.6;100.0
22674;DHT22;11504;43.334;21.918;2022-07-23T10:23:31;38.6;100.0
22674;DHT22;11504;43.334;21.918;2022-07-23T10:29:10;38.5;100.0
22674;DHT22;11504;43.334;21.918;2022-07-23T10:34:38;38.5;100.0
22674;DHT22;11504;43.334;21.918;2022-07-23T10:40:10;38.6;100.0
22674;DHT22;11504;43.334;21.918;2022-07-23T10:44:57;38.6;100.0
22674;DHT22;11504;43.334;21.918;2022-07-23T10:49:34;38.7;100.0
22674;DHT22;11504;43.334;21.918;2022-07-23T10:54:20;38.7;100.0
22674;DHT22;11504;43.334;21.918;2022-07-23T10:59:03;38.5;100.0
22674;DHT22;11504;43.334;21.918;2022-07-23T11:03:55;38.5;100.0
22674;DHT22;11504;43.334;21.918;2022-07-23T11:08:33;38.3;100.0
22674;DHT22;11504;43.334;21.918;2022-07-23T11:13:28;38.3;100.0
22674;DHT22;11504;43.334;21.918;2022-07-23T11:18:53;38.0;100.0
22674;DHT22;11504;43.334;21.918;2022-07-23T11:23:58;38.0;100.0
22674;DHT22;11504;43.334;21.918;2022-07-23T11:28:42;37.8;100.0
22674;DHT22;11504;43.334;21.918;2022-07-23T11:33:20;37.8;100.0
22674;DHT22;11504;43.334;21.918;2022-07-23T11:38:07;37.9;100.0
22674;DHT22;11504;43.334;21.918;2022-07-23T11:42:59;37.9;100.0
22674;DHT22;11504;43.334;21.918;2022-07-23T11:47:46;38.0;100.0
22674;DHT22;11504;43.334;21.918;2022-07-23T11:52:23;38.0;100.0
22674;DHT22;11504;43.334;21.918;2022-07-23T11:57:05;38.0;100.0
22674;DHT22;11504;43.334;21.918;2022-07-23T12:01:55;38.0;100.0
22674;DHT22;11504;43.334;21.918;2022-07-23T12:06:42;38.0;100.0
22674;DHT22;11504;43.334;21.918;2022-07-23T12:11:19;38.0;100.0
22674;DHT22;11504;43.334;21.918;2022-07-23T12:15:56;38.2;98.0
22674;DHT22;11504;43.334;21.918;2022-07-23T12:20:36;38.2;98.0
22674;DHT22;11504;43.334;21.918;2022-07-23T12:25:29;38.4;96.0
22674;DHT22;11504;43.334;21.918;2022-07-23T12:30:23;38.4;96.0
22674;DHT22;11504;43.334;21.918;2022-07-23T12:35:20;38.4;94.0
22674;DHT22;11504;43.334;21.918;2022-07-23T12:40:20;38.4;94.0
22674;DHT22;11504;43.334;21.918;2022-07-23T12:45:21;38.4;92.0
22674;DHT22;11504;43.334;21.918;2022-07-23T12:50:53;38.4;92.0
22674;DHT22;11504;43.334;21.918;2022-07-23T12:55:44;38.3;91.0
22674;DHT22;11504;43.334;21.918;2022-07-23T13:00:50;38.3;91.0
22674;DHT22;11504;43.334;21.918;2022-07-23T13:05:41;38.3;91.0
22674;DHT22;11504;43.334;21.918;2022-07-23T13:10:17;38.3;91.0
22674;DHT22;11504;43.334;21.918;2022-07-23T13:14:54;38.3;91.0
22674;DHT22;11504;43.334;21.918;2022-07-23T13:19:31;38.3;91.0
22674;DHT22;11504;43.334;21.918;2022-07-23T13:24:08;38.3;91.0
22674;DHT22;11504;43.334;21.918;2022-07-23T13:28:49;38.3;91.0
22674;DHT22;11504;43.334;21.918;2022-07-23T13:33:26;38.3;91.0
22674;DHT22;11504;43.334;21.918;2022-07-23T13:38:04;38.2;92.0
22674;DHT22;11504;43.334;21.918;2022-07-23T13:42:43;38.2;92.0
22674;DHT22;11504;43.334;21.918;2022-07-23T13:47:19;38.1;92.0
22674;DHT22;11504;43.334;21.918;2022-07-23T13:51:56;38.1;92.0
22674;DHT22;11504;43.334;21.918;2022-07-23T13:56:32;38.0;94.0
22674;DHT22;11504;43.334;21.918;2022-07-23T14:01:09;38.0;94.0
22674;DHT22;11504;43.334;21.918;2022-07-23T14:05:45;37.9;95.0
22674;DHT22;11504;43.334;21.918;2022-07-23T14:10:23;37.9;95.0
22674;DHT22;11504;43.334;21.918;2022-07-23T14:15:01;37.9;95.0
22674;DHT22;11504;43.334;21.918;2022-07-23T14:19:43;37.8;95.0
22674;DHT22;11504;43.334;21.918;2022-07-23T14:24:20;37.8;95.0
22674;DHT22;11504;43.334;21.918;2022-07-23T14:28:57;37.8;95.0
22674;DHT22;11504;43.334;21.918;2022-07-23T14:33:33;37.8;95.0
22674;DHT22;11504;43.334;21.918;2022-07-23T14:38:11;37.6;96.0
22674;DHT22;11504;43.334;21.918;2022-07-23T14:42:49;37.6;96.0
22674;DHT22;11504;43.334;21.918;2022-07-23T14:47:26;37.5;96.0
22674;DHT22;11504;43.334;21.918;2022-07-23T14:52:04;37.5;96.0
22674;DHT22;11504;43.334;21.918;2022-07-23T14:56:43;37.4;96.0
22674;DHT22;11504;43.334;21.918;2022-07-23T15:01:22;37.4;96.0
22674;DHT22;11504;43.334;21.918;2022-07-23T15:05:59;37.4;97.0
22674;DHT22;11504;43.334;21.918;2022-07-23T15:10:36;37.4;97.0
22674;DHT22;11504;43.334;21.918;2022-07-23T15:15:13;37.3;96.0
22674;DHT22;11504;43.334;21.918;2022-07-23T15:19:52;37.3;96.0
22674;DHT22;11504;43.334;21.918;2022-07-23T15:24:29;37.3;96.0
22674;DHT22;11504;43.334;21.918;2022-07-23T15:29:07;37.3;96.0
22674;DHT22;11504;43.334;21.918;2022-07-23T15:33:44;37.2;97.0
22674;DHT22;11504;43.334;21.918;2022-07-23T15:38:22;37.2;97.0
22674;DHT22;11504;43.334;21.918;2022-07-23T15:43:02;37.1;97.0
22674;DHT22;11504;43.334;21.918;2022-07-23T15:47:40;37.1;97.0
22674;DHT22;11504;43.334;21.918;2022-07-23T15:52:18;37.0;98.0
22674;DHT22;11504;43.334;21.918;2022-07-23T15:56:55;37.0;98.0
22674;DHT22;11504;43.334;21.918;2022-07-23T16:01:33;37.0;98.0
22674;DHT22;11504;43.334;21.918;2022-07-23T16:06:10;36.9;99.0
22674;DHT22;11504;43.334;21.918;2022-07-23T16:10:47;36.9;99.0
22674;DHT22;11504;43.334;21.918;2022-07-23T16:15:24;36.8;99.0
22674;DHT22;11504;43.334;21.918;2022-07-23T16:20:02;36.8;99.0
22674;DHT22;11504;43.334;21.918;2022-07-23T16:24:45;36.7;100.0
22674;DHT22;11504;43.334;21.918;2022-07-23T16:29:22;36.7;100.0
22674;DHT22;11504;43.334;21.918;2022-07-23T16:33:58;36.6;100.0
22674;DHT22;11504;43.334;21.918;2022-07-23T16:38:36;36.6;100.0
22674;DHT22;11504;43.334;21.918;2022-07-23T16:43:14;36.4;100.0
22674;DHT22;11504;43.334;21.918;2022-07-23T16:47:51;36.4;100.0
22674;DHT22;11504;43.334;21.918;2022-07-23T16:52:28;36.2;100.0
22674;DHT22;11504;43.334;21.918;2022-07-23T16:57:05;36.2;100.0
22674;DHT22;11504;43.334;21.918;2022-07-23T17:01:42;36.2;100.0
22674;DHT22;11504;43.334;21.918;2022-07-23T17:06:19;36.1;100.0
22674;DHT22;11504;43.334;21.918;2022-07-23T17:10:56;36.1;100.0
22674;DHT22;11504;43.334;21.918;2022-07-23T17:15:33;36.0;100.0
22674;DHT22;11504;43.334;21.918;2022-07-23T17:20:11;36.0;100.0
22674;DHT22;11504;43.334;21.918;2022-07-23T17:24:52;35.9;100.0
22674;DHT22;11504;43.334;21.918;2022-07-23T17:29:29;35.9;100.0
22674;DHT22;11504;43.334;21.918;2022-07-23T17:34:07;35.8;100.0
22674;DHT22;11504;43.334;21.918;2022-07-23T17:38:45;35.8;100.0
22674;DHT22;11504;43.334;21.918;2022-07-23T17:43:24;35.6;100.0
22674;DHT22;11504;43.334;21.918;2022-07-23T17:48:01;35.6;100.0
22674;DHT22;11504;43.334;21.918;2022-07-23T17:52:44;35.4;100.0
22674;DHT22;11504;43.334;21.918;2022-07-23T17:57:33;35.4;100.0
22674;DHT22;11504;43.334;21.918;2022-07-23T18:02:12;35.4;100.0
22674;DHT22;11504;43.334;21.918;2022-07-23T18:06:49;35.2;100.0
22674;DHT22;11504;43.334;21.918;2022-07-23T18:11:27;35.2;100.0
22674;DHT22;11504;43.334;21.918;2022-07-23T18:16:04;34.8;100.0
22674;DHT22;11504;43.334;21.918;2022-07-23T18:20:43;34.8;100.0
22674;DHT22;11504;43.334;21.918;2022-07-23T18:25:23;34.5;100.0
22674;DHT22;11504;43.334;21.918;2022-07-23T18:30:00;34.5;100.0
22674;DHT22;11504;43.334;21.918;2022-07-23T18:34:43;34.0;100.0
22674;DHT22;11504;43.334;21.918;2022-07-23T18:39:20;34.0;100.0
22674;DHT22;11504;43.334;21.918;2022-07-23T18:43:58;33.4;100.0
22674;DHT22;11504;43.334;21.918;2022-07-23T18:48:36;33.4;100.0
22674;DHT22;11504;43.334;21.918;2022-07-23T18:53:13;33.2;100.0
22674;DHT22;11504;43.334;21.918;2022-07-23T18:57:49;33.2;100.0
22674;DHT22;11504;43.334;21.918;2022-07-23T19:02:26;32.9;100.0
22674;DHT22;11504;43.334;21.918;2022-07-23T19:07:03;32.9;100.0
22674;DHT22;11504;43.334;21.918;2022-07-23T19:11:39;32.9;100.0
22674;DHT22;11504;43.334;21.918;2022-07-23T19:16:16;32.4;100.0
22674;DHT22;11504;43.334;21.918;2022-07-23T19:20:52;32.4;100.0
22674;DHT22;11504;43.334;21.918;2022-07-23T19:25:29;32.0;100.0
22674;DHT22;11504;43.334;21.918;2022-07-23T19:30:09;32.0;100.0
22674;DHT22;11504;43.334;21.918;2022-07-23T19:34:48;31.4;100.0
22674;DHT22;11504;43.334;21.918;2022-07-23T19:39:25;31.4;100.0
22674;DHT22;11504;43.334;21.918;2022-07-23T19:44:02;30.9;100.0
22674;DHT22;11504;43.334;21.918;2022-07-23T19:48:39;30.9;100.0
22674;DHT22;11504;43.334;21.918;2022-07-23T19:53:16;30.6;100.0
22674;DHT22;11504;43.334;21.918;2022-07-23T19:57:53;30.6;100.0
22674;DHT22;11504;43.334;21.918;2022-07-23T20:02:31;30.2;100.0
22674;DHT22;11504;43.334;21.918;2022-07-23T20:07:09;30.2;100.0
22674;DHT22;11504;43.334;21.918;2022-07-23T20:11:46;30.2;100.0
22674;DHT22;11504;43.334;21.918;2022-07-23T20:16:24;29.9;100.0
22674;DHT22;11504;43.334;21.918;2022-07-23T20:21:03;29.9;100.0
22674;DHT22;11504;43.334;21.918;2022-07-23T20:25:42;29.6;100.0
22674;DHT22;11504;43.334;21.918;2022-07-23T20:30:19;29.6;100.0
22674;DHT22;11504;43.334;21.918;2022-07-23T20:34:55;29.2;100.0
22674;DHT22;11504;43.334;21.918;2022-07-23T20:39:33;29.2;100.0
22674;DHT22;11504;43.334;21.918;2022-07-23T20:44:11;28.9;100.0
22674;DHT22;11504;43.334;21.918;2022-07-23T20:48:48;28.9;100.0
22674;DHT22;11504;43.334;21.918;2022-07-23T20:53:25;28.8;100.0
22674;DHT22;11504;43.334;21.918;2022-07-23T20:58:04;28.8;100.0
22674;DHT22;11504;43.334;21.918;2022-07-23T21:02:41;28.6;100.0
22674;DHT22;11504;43.334;21.918;2022-07-23T21:07:20;28.6;100.0
22674;DHT22;11504;43.334;21.918;2022-07-23T21:11:58;28.6;100.0
22674;DHT22;11504;43.334;21.918;2022-07-23T21:16:34;28.5;100.0
22674;DHT22;11504;43.334;21.918;2022-07-23T21:21:11;28.5;100.0
22674;DHT22;11504;43.334;21.918;2022-07-23T21:25:48;28.4;100.0
22674;DHT22;11504;43.334;21.918;2022-07-23T21:30:25;28.4;100.0
22674;DHT22;11504;43.334;21.918;2022-07-23T21:35:03;28.2;100.0
22674;DHT22;11504;43.334;21.918;2022-07-23T21:39:44;28.2;100.0
22674;DHT22;11504;43.334;21.918;2022-07-23T21:44:21;28.0;100.0
22674;DHT22;11504;43.334;21.918;2022-07-23T21:48:58;28.0;100.0
22674;DHT22;11504;43.334;21.918;2022-07-23T21:53:36;27.8;100.0
22674;DHT22;11504;43.334;21.918;2022-07-23T21:58:12;27.8;100.0
22674;DHT22;11504;43.334;21.918;2022-07-23T22:02:49;27.6;100.0
22674;DHT22;11504;43.334;21.918;2022-07-23T22:07:25;27.6;100.0
22674;DHT22;11504;43.334;21.918;2022-07-23T22:12:02;27.6;100.0
22674;DHT22;11504;43.334;21.918;2022-07-23T22:16:42;27.6;100.0
22674;DHT22;11504;43.334;21.918;2022-07-23T22:21:19;27.6;100.0
22674;DHT22;11504;43.334;21.918;2022-07-23T22:25:56;27.5;100.0
22674;DHT22;11504;43.334;21.918;2022-07-23T22:30:33;27.5;100.0
22674;DHT22;11504;43.334;21.918;2022-07-23T22:35:10;27.5;100.0
22674;DHT22;11504;43.334;21.918;2022-07-23T22:39:50;27.5;100.0
22674;DHT22;11504;43.334;21.918;2022-07-23T22:44:27;27.5;100.0
22674;DHT22;11504;43.334;21.918;2022-07-23T22:49:05;27.5;100.0
22674;DHT22;11504;43.334;21.918;2022-07-23T22:53:42;27.5;100.0
22674;DHT22;11504;43.334;21.918;2022-07-23T22:58:19;27.5;100.0
22674;DHT22;11504;43.334;21.918;2022-07-23T23:02:57;27.5;100.0
22674;DHT22;11504;43.334;21.918;2022-07-23T23:07:35;27.5;100.0
22674;DHT22;11504;43.334;21.918;2022-07-23T23:12:11;27.5;100.0
22674;DHT22;11504;43.334;21.918;2022-07-23T23:16:49;27.3;100.0
22674;DHT22;11504;43.334;21.918;2022-07-23T23:21:27;27.3;100.0
22674;DHT22;11504;43.334;21.918;2022-07-23T23:26:05;27.1;100.0
22674;DHT22;11504;43.334;21.918;2022-07-23T23:30:42;27.1;100.0
22674;DHT22;11504;43.334;21.918;2022-07-23T23:35:19;27.0;100.0
22674;DHT22;11504;43.334;21.918;2022-07-23T23:39:57;27.0;100.0
22674;DHT22;11504;43.334;21.918;2022-07-23T23:44:34;26.9;100.0
22674;DHT22;11504;43.334;21.918;2022-07-23T23:49:11;26.9;100.0
22674;DHT22;11504;43.334;21.918;2022-07-23T23:53:48;26.8;100.0
22674;DHT22;11504;43.334;21.918;2022-07-23T23:58:25;26.8;100.0
